createdAt,value
2023-04-11T00:01:16.723Z,78.80
2023-04-11T00:03:47.121Z,76.50
2023-04-11T00:06:17.538Z,77.40
2023-04-11T00:08:49.574Z,77.90
2023-04-11T00:11:20.045Z,77.70
2023-04-11T00:13:50.529Z,74.80
2023-04-11T00:19:14.923Z,75.70
2023-04-11T00:21:46.873Z,76.40
2023-04-11T00:24:28.193Z,74.10
2023-04-11T00:26:59.703Z,73.80
2023-04-11T00:29:30.197Z,74.70
2023-04-11T00:32:00.567Z,74.30
2023-04-11T00:34:31.466Z,75.00
2023-04-11T00:37:03.239Z,73.90
2023-04-11T00:39:37.879Z,73.30
2023-04-11T00:42:09.989Z,75.20
2023-04-11T00:44:41.950Z,74.40
2023-04-11T00:47:12.488Z,74.60
2023-04-11T00:49:44.184Z,72.50
2023-04-11T00:52:15.843Z,70.70
2023-04-11T00:54:46.124Z,70.90
2023-04-11T00:57:17.146Z,68.70
2023-04-11T00:59:53.185Z,69.90
2023-04-11T01:02:26.652Z,69.60
2023-04-11T01:04:58.280Z,68.10
2023-04-11T01:07:28.979Z,67.80
2023-04-11T01:09:59.833Z,68.90
2023-04-11T01:12:31.710Z,69.70
2023-04-11T01:15:02.270Z,70.20
2023-04-11T01:17:34.656Z,68.60
2023-04-11T01:20:05.792Z,68.10
2023-04-11T01:22:39.399Z,69.20
2023-04-11T01:25:11.802Z,68.50
2023-04-11T01:30:53.256Z,68.10
2023-04-11T01:33:23.807Z,67.70
2023-04-11T01:35:54.248Z,67.70
2023-04-11T01:38:30.632Z,66.30
2023-04-11T01:41:02.551Z,67.20
2023-04-11T01:43:32.909Z,67.40
2023-04-11T01:46:04.558Z,65.70
2023-04-11T01:48:37.305Z,66.60
2023-04-11T01:51:09.109Z,66.80
2023-04-11T01:53:39.449Z,66.50
2023-04-11T01:56:10.439Z,65.40
2023-04-11T01:58:40.680Z,66.00
2023-04-11T02:01:11.009Z,65.70
2023-04-11T02:03:42.470Z,66.20
2023-04-11T02:06:13.369Z,66.10
2023-04-11T02:08:44.276Z,66.10
2023-04-11T02:11:14.842Z,65.60
2023-04-11T02:13:45.495Z,64.40
2023-04-11T02:16:20.117Z,65.60
2023-04-11T02:18:50.980Z,64.50
2023-04-11T02:21:23.217Z,64.50
2023-04-11T02:23:53.762Z,65.30
2023-04-11T02:26:24.581Z,64.70
2023-04-11T02:28:55.463Z,64.40
2023-04-11T02:31:26.629Z,65.00
2023-04-11T02:33:57.176Z,66.00
2023-04-11T02:36:30.187Z,64.90
2023-04-11T02:39:00.944Z,64.30
2023-04-11T02:41:31.712Z,63.50
2023-04-11T02:44:03.661Z,63.80
2023-04-11T02:46:34.163Z,64.10
2023-04-11T02:49:04.909Z,62.80
2023-04-11T02:51:39.615Z,61.50
2023-04-11T02:54:10.008Z,62.50
2023-04-11T02:56:40.525Z,65.10
2023-04-11T02:59:10.925Z,63.20
2023-04-11T03:01:41.614Z,64.30
2023-04-11T03:04:12.191Z,63.00
2023-04-11T03:06:43.523Z,63.00
2023-04-11T03:09:15.106Z,63.40
2023-04-11T03:11:47.411Z,61.90
2023-04-11T03:14:18.991Z,63.40
2023-04-11T03:16:49.718Z,62.30
2023-04-11T03:19:20.436Z,63.80
2023-04-11T03:21:51.178Z,64.10
2023-04-11T03:24:21.445Z,65.00
2023-04-11T03:26:51.668Z,64.20
2023-04-11T03:29:21.902Z,62.90
2023-04-11T03:31:52.376Z,62.70
2023-04-11T03:34:23.575Z,64.10
2023-04-11T03:36:53.923Z,65.60
2023-04-11T03:39:24.501Z,66.50
2023-04-11T03:41:54.779Z,67.30
2023-04-11T03:44:44.075Z,65.60
2023-04-11T03:47:14.292Z,66.90
2023-04-11T03:49:44.573Z,67.20
2023-04-11T03:52:17.115Z,67.50
2023-04-11T03:54:47.966Z,66.90
2023-04-11T03:57:18.762Z,65.10
2023-04-11T03:59:52.310Z,65.60
2023-04-11T04:02:22.677Z,66.30
2023-04-11T04:05:00.950Z,67.70
2023-04-11T04:07:32.278Z,66.70
2023-04-11T04:10:02.629Z,65.80
2023-04-11T04:12:32.923Z,66.00
2023-04-11T04:15:04.381Z,67.20
2023-04-11T04:17:34.774Z,63.40
2023-04-11T04:20:06.433Z,65.80
2023-04-11T04:22:36.995Z,64.20
2023-04-11T04:25:07.895Z,64.40
2023-04-11T04:27:38.169Z,64.70
2023-04-11T04:30:09.099Z,64.40
2023-04-11T04:32:39.418Z,66.80
2023-04-11T04:35:10.647Z,65.20
2023-04-11T04:37:41.695Z,66.00
2023-04-11T04:40:15.307Z,65.80
2023-04-11T04:42:45.805Z,65.50
2023-04-11T04:45:16.062Z,65.00
2023-04-11T04:47:46.464Z,65.20
2023-04-11T04:50:17.154Z,65.10
2023-04-11T04:52:48.191Z,66.10
2023-04-11T04:55:18.599Z,65.50
2023-04-11T04:57:49.518Z,66.50
2023-04-11T05:00:21.767Z,66.40
2023-04-11T05:02:56.477Z,65.90
2023-04-11T05:05:27.585Z,67.10
2023-04-11T05:07:57.940Z,66.50
2023-04-11T05:10:28.445Z,68.00
2023-04-11T05:12:58.762Z,68.90
2023-04-11T05:15:31.967Z,69.20
2023-04-11T05:18:02.918Z,69.60
2023-04-11T05:20:33.276Z,68.40
2023-04-11T05:23:03.532Z,69.10
2023-04-11T05:25:34.339Z,68.60
2023-04-11T05:28:04.840Z,68.90
2023-04-11T05:30:35.759Z,69.50
2023-04-11T05:33:06.640Z,68.20
2023-04-11T05:35:37.839Z,68.30
2023-04-11T05:38:08.705Z,68.80
2023-04-11T05:40:42.536Z,68.80
2023-04-11T05:43:16.420Z,69.60
2023-04-11T05:45:50.366Z,69.70
2023-04-11T05:48:25.037Z,70.20
2023-04-11T05:50:57.272Z,70.90
2023-04-11T05:53:28.307Z,70.20
2023-04-11T05:56:00.172Z,69.90
2023-04-11T05:58:34.813Z,71.50
2023-04-11T06:01:06.907Z,69.80
2023-04-11T06:03:37.845Z,70.40
2023-04-11T06:06:09.770Z,69.30
2023-04-11T06:08:45.212Z,69.50
2023-04-11T06:11:17.119Z,69.20
2023-04-11T06:13:49.107Z,69.10
2023-04-11T06:16:19.928Z,69.80
2023-04-11T06:18:51.382Z,69.10
2023-04-11T06:21:21.661Z,68.90
2023-04-11T06:23:52.438Z,69.00
2023-04-11T06:26:23.155Z,68.80
2023-04-11T06:28:54.927Z,69.50
2023-04-11T06:31:25.640Z,69.30
2023-04-11T06:33:56.908Z,69.80
2023-04-11T06:36:29.196Z,69.60
2023-04-11T06:38:59.917Z,70.20
2023-04-11T06:41:30.616Z,70.60
2023-04-11T06:44:01.305Z,71.10
2023-04-11T06:46:32.193Z,72.00
2023-04-11T06:49:03.121Z,71.10
2023-04-11T06:51:33.988Z,71.50
2023-04-11T06:54:06.235Z,71.00
2023-04-11T06:56:37.514Z,71.90
2023-04-11T06:59:08.411Z,72.10
2023-04-11T07:01:41.490Z,73.20
2023-04-11T07:04:13.851Z,73.50
2023-04-11T07:06:45.031Z,73.90
2023-04-11T07:09:15.804Z,74.70
2023-04-11T07:11:47.203Z,75.70
2023-04-11T07:14:17.943Z,75.80
2023-04-11T07:16:48.995Z,76.40
2023-04-11T07:19:20.117Z,76.00
2023-04-11T07:21:51.854Z,77.30
2023-04-11T07:24:23.118Z,77.80
2023-04-11T07:26:55.495Z,77.80
2023-04-11T07:29:26.274Z,77.60
2023-04-11T07:31:57.232Z,77.20
2023-04-11T07:34:29.410Z,76.80
2023-04-11T07:37:03.928Z,77.10
2023-04-11T07:39:37.418Z,77.60
2023-04-11T07:42:08.624Z,77.90
2023-04-11T07:44:39.377Z,78.40
2023-04-11T07:47:10.132Z,78.00
2023-04-11T07:49:44.071Z,78.10
2023-04-11T07:52:14.812Z,78.00
2023-04-11T07:54:46.386Z,77.90
2023-04-11T07:57:17.489Z,77.60
2023-04-11T07:59:48.479Z,78.80
2023-04-11T08:02:19.373Z,77.80
2023-04-11T08:04:50.300Z,77.60
2023-04-11T08:07:22.526Z,77.70
2023-04-11T08:09:56.537Z,78.00
2023-04-11T08:12:30.424Z,78.10
2023-04-11T08:15:01.281Z,78.40
2023-04-11T08:17:32.715Z,78.40
2023-04-11T08:20:04.014Z,78.60
2023-04-11T08:22:39.393Z,79.00
2023-04-11T08:25:12.185Z,79.50
2023-04-11T08:27:43.993Z,79.70
2023-04-11T08:30:17.326Z,79.70
2023-04-11T08:32:50.482Z,80.20
2023-04-11T08:35:21.198Z,80.40
2023-04-11T08:37:51.970Z,80.80
2023-04-11T08:40:23.472Z,80.60
2023-04-11T08:43:05.656Z,80.70
2023-04-11T08:45:36.438Z,80.20
2023-04-11T08:48:09.137Z,80.50
2023-04-11T08:50:40.956Z,79.60
2023-04-11T08:53:12.400Z,79.40
2023-04-11T08:55:50.078Z,80.10
2023-04-11T08:58:23.582Z,80.30
2023-04-11T09:00:54.870Z,80.40
2023-04-11T09:03:25.522Z,80.30
2023-04-11T09:05:56.813Z,80.60
2023-04-11T09:08:41.654Z,81.30
2023-04-11T09:11:13.327Z,81.90
2023-04-11T09:13:44.969Z,82.50
2023-04-11T09:16:17.050Z,82.50
2023-04-11T09:18:49.331Z,81.40
2023-04-11T09:21:21.584Z,82.60
2023-04-11T09:23:52.225Z,82.90
2023-04-11T09:26:33.305Z,82.10
2023-04-11T09:29:04.057Z,82.60
2023-04-11T09:31:49.514Z,82.80
2023-04-11T09:34:29.483Z,83.00
2023-04-11T09:37:02.042Z,82.60
2023-04-11T09:39:34.592Z,82.30
2023-04-11T09:42:27.362Z,82.50
2023-04-11T09:44:59.075Z,83.30
2023-04-11T09:47:35.796Z,83.40
2023-04-11T09:50:06.044Z,84.00
2023-04-11T09:52:38.653Z,83.80
2023-04-11T09:55:10.433Z,84.60
2023-04-11T09:57:51.543Z,84.20
2023-04-11T10:00:32.269Z,84.30
2023-04-11T10:03:04.233Z,84.60
2023-04-11T10:05:35.654Z,85.50
2023-04-11T10:08:33.700Z,86.50
2023-04-11T10:11:04.879Z,86.50
2023-04-11T10:13:42.578Z,86.80
2023-04-11T10:16:18.950Z,87.70
2023-04-11T10:18:59.307Z,86.80
2023-04-11T10:21:35.905Z,86.60
2023-04-11T10:24:25.382Z,86.90
2023-04-11T10:27:07.651Z,87.60
2023-04-11T10:29:53.147Z,87.90
2023-04-11T10:32:25.799Z,87.80
2023-04-11T10:34:58.266Z,87.80
2023-04-11T10:37:39.403Z,87.80
2023-04-11T10:40:13.958Z,88.70
2023-04-11T10:42:47.668Z,89.30
2023-04-11T10:45:28.099Z,89.40
2023-04-11T10:48:16.507Z,89.50
2023-04-11T10:50:47.941Z,89.60
2023-04-11T10:53:50.806Z,90.00
2023-04-11T10:56:49.240Z,89.60
2023-04-11T10:59:36.464Z,89.60
2023-04-11T11:02:07.705Z,89.40
2023-04-11T11:04:40.152Z,89.60
2023-04-11T11:07:15.785Z,89.60
2023-04-11T11:09:53.218Z,89.60
2023-04-11T11:12:24.463Z,89.30
2023-04-11T11:14:56.855Z,89.30
2023-04-11T11:17:28.825Z,89.30
2023-04-11T11:19:59.565Z,89.70
2023-04-11T11:22:31.732Z,89.40
2023-04-11T11:25:14.147Z,89.10
2023-04-11T11:27:45.275Z,88.90
2023-04-11T11:30:19.546Z,89.20
2023-04-11T11:32:50.443Z,89.90
2023-04-11T11:35:20.984Z,89.70
2023-04-11T11:37:54.807Z,89.30
2023-04-11T11:40:25.622Z,89.40
2023-04-11T11:42:56.480Z,89.80
2023-04-11T11:45:27.254Z,90.00
2023-04-11T11:47:57.682Z,90.20
2023-04-11T11:50:33.655Z,90.50
2023-04-11T11:53:23.831Z,90.20
2023-04-11T11:55:56.506Z,90.10
2023-04-11T11:58:27.539Z,90.10
2023-04-11T12:00:58.581Z,90.00
2023-04-11T12:03:31.841Z,89.90
2023-04-11T12:06:02.560Z,90.20
2023-04-11T12:08:36.767Z,90.60
2023-04-11T12:11:16.595Z,90.50
2023-04-11T12:13:47.812Z,90.60
2023-04-11T12:16:18.487Z,90.70
2023-04-11T12:18:49.404Z,90.90
2023-04-11T12:21:20.982Z,90.70
2023-04-11T12:23:54.891Z,90.60
2023-04-11T12:26:27.114Z,90.70
2023-04-11T12:28:58.437Z,90.60
2023-04-11T12:31:29.232Z,90.90
2023-04-11T12:34:00.130Z,91.40
2023-04-11T12:39:02.233Z,91.10
2023-04-11T12:41:32.818Z,91.10
2023-04-11T12:44:05.406Z,91.00
2023-04-11T12:46:35.643Z,91.00
2023-04-11T12:49:07.180Z,91.60
2023-04-11T12:51:38.112Z,91.40
2023-04-11T12:54:09.964Z,91.10
2023-04-11T12:56:40.804Z,91.00
2023-04-11T12:59:11.052Z,91.00
2023-04-11T13:01:41.619Z,91.30
2023-04-11T13:04:12.449Z,91.50
2023-04-11T13:06:43.248Z,91.50
2023-04-11T13:09:17.515Z,91.20
2023-04-11T13:11:48.261Z,91.50
2023-04-11T13:14:18.940Z,91.50
2023-04-11T13:16:50.087Z,91.10
2023-04-11T13:19:22.119Z,91.00
2023-04-11T13:21:52.979Z,91.00
2023-04-11T13:24:23.539Z,91.70
2023-04-11T13:26:53.878Z,91.60
2023-04-11T13:29:24.228Z,91.90
2023-04-11T13:31:56.045Z,92.10
2023-04-11T13:34:26.419Z,91.60
2023-04-11T13:36:56.810Z,91.60
2023-04-11T13:39:27.543Z,91.70
2023-04-11T13:41:58.996Z,92.00
2023-04-11T13:44:30.549Z,92.30
2023-04-11T13:47:02.307Z,92.60
2023-04-11T13:49:33.164Z,91.80
2023-04-11T13:52:03.903Z,91.60
2023-04-11T13:54:35.519Z,91.70
2023-04-11T13:57:10.285Z,91.90
2023-04-11T13:59:41.057Z,91.60
2023-04-11T14:02:12.224Z,91.80
2023-04-11T14:04:43.458Z,91.90
2023-04-11T14:07:14.695Z,91.70
2023-04-11T14:09:44.973Z,91.90
2023-04-11T14:12:15.549Z,92.10
2023-04-11T14:14:46.576Z,92.00
2023-04-11T14:17:18.466Z,92.20
2023-04-11T14:19:48.800Z,92.00
2023-04-11T14:22:19.336Z,91.90
2023-04-11T14:24:50.008Z,92.00
2023-04-11T14:27:20.640Z,92.80
2023-04-11T14:29:51.374Z,92.50
2023-04-11T14:32:22.038Z,92.20
2023-04-11T14:34:53.959Z,92.10
2023-04-11T14:37:25.115Z,91.90
2023-04-11T14:39:57.406Z,91.90
2023-04-11T14:42:29.288Z,92.10
2023-04-11T14:45:00.261Z,92.00
2023-04-11T14:47:30.987Z,92.30
2023-04-11T14:50:03.195Z,92.20
2023-04-11T14:52:34.603Z,92.40
2023-04-11T14:55:08.749Z,92.40
2023-04-11T14:57:55.127Z,91.90
2023-04-11T15:00:26.401Z,92.00
2023-04-11T15:02:59.531Z,92.10
2023-04-11T15:05:30.438Z,92.40
2023-04-11T15:08:05.201Z,91.80
2023-04-11T15:10:35.649Z,91.80
2023-04-11T15:13:07.579Z,91.80
2023-04-11T15:15:40.473Z,92.00
2023-04-11T15:18:29.946Z,91.70
2023-04-11T15:21:04.052Z,91.60
2023-04-11T15:23:36.472Z,92.20
2023-04-11T15:26:11.050Z,91.80
2023-04-11T15:28:48.972Z,92.40
2023-04-11T15:31:39.560Z,92.60
2023-04-11T15:34:10.054Z,92.20
2023-04-11T15:36:40.493Z,91.80
2023-04-11T15:39:11.023Z,92.30
2023-04-11T15:41:41.584Z,92.10
2023-04-11T15:44:12.012Z,92.10
2023-04-11T15:46:44.211Z,92.50
2023-04-11T15:49:15.734Z,92.50
2023-04-11T15:51:48.375Z,92.30
2023-04-11T15:54:18.657Z,92.00
2023-04-11T15:56:49.089Z,92.00
2023-04-11T15:59:21.132Z,93.10
2023-04-11T16:01:51.897Z,92.20
2023-04-11T16:04:22.415Z,91.90
2023-04-11T16:06:52.962Z,92.00
2023-04-11T16:09:23.712Z,92.10
2023-04-11T16:11:54.427Z,92.10
2023-04-11T16:14:27.876Z,92.10
2023-04-11T16:17:00.194Z,92.00
2023-04-11T16:19:33.557Z,92.60
2023-04-11T16:22:07.322Z,92.10
2023-04-11T16:24:37.718Z,91.80
2023-04-11T16:27:08.549Z,92.20
2023-04-11T16:29:38.776Z,92.30
2023-04-11T16:32:09.224Z,91.90
2023-04-11T16:34:39.651Z,92.00
2023-04-11T16:37:10.868Z,92.00
2023-04-11T16:39:41.167Z,92.20
2023-04-11T16:42:11.586Z,92.10
2023-04-11T16:44:41.963Z,92.70
2023-04-11T16:47:12.921Z,92.00
2023-04-11T16:49:45.018Z,92.00
2023-04-11T16:52:19.272Z,92.40
2023-04-11T16:54:49.598Z,92.50
2023-04-11T16:57:23.702Z,92.50
2023-04-11T16:59:54.001Z,92.80
2023-04-11T17:02:27.702Z,92.30
2023-04-11T17:04:58.055Z,92.50
2023-04-11T17:07:30.182Z,92.30
2023-04-11T17:10:01.344Z,92.50
2023-04-11T17:12:35.454Z,92.90
2023-04-11T17:15:06.440Z,93.20
2023-04-11T17:20:20.115Z,92.50
2023-04-11T17:22:51.452Z,92.50
2023-04-11T17:25:22.079Z,92.60
2023-04-11T17:27:53.124Z,92.60
2023-04-11T17:30:24.552Z,92.90
2023-04-11T17:32:57.361Z,92.40
2023-04-11T17:35:29.852Z,92.30
2023-04-11T17:38:00.799Z,92.70
2023-04-11T17:40:31.810Z,92.70
2023-04-11T17:43:03.406Z,92.80
2023-04-11T17:45:34.176Z,93.00
2023-04-11T17:48:05.133Z,93.00
2023-04-11T17:50:35.411Z,92.80
2023-04-11T17:53:06.528Z,92.80
2023-04-11T17:55:37.575Z,93.60
2023-04-11T17:58:08.163Z,93.70
2023-04-11T18:00:48.335Z,93.40
2023-04-11T18:03:26.969Z,93.50
2023-04-11T18:05:58.324Z,92.90
2023-04-11T18:08:49.094Z,93.20
2023-04-11T18:11:21.135Z,93.40
2023-04-11T18:13:52.298Z,93.60
2023-04-11T18:16:23.121Z,92.90
2023-04-11T18:18:53.381Z,93.10
2023-04-11T18:21:24.043Z,93.40
2023-04-11T18:23:54.341Z,93.40
2023-04-11T18:26:25.060Z,93.50
2023-04-11T18:28:55.601Z,93.10
2023-04-11T18:31:25.854Z,93.70
2023-04-11T18:33:56.624Z,93.30
2023-04-11T18:36:27.400Z,93.20
2023-04-11T18:38:58.727Z,93.00
2023-04-11T18:41:29.053Z,93.20
2023-04-11T18:44:00.309Z,93.10
2023-04-11T18:46:32.572Z,93.40
2023-04-11T18:49:07.407Z,93.10
2023-04-11T18:51:39.645Z,93.10
2023-04-11T18:54:09.970Z,93.40
2023-04-11T18:56:40.494Z,93.20
2023-04-11T18:59:11.508Z,93.50
2023-04-11T19:01:43.829Z,93.00
2023-04-11T19:04:15.528Z,92.90
2023-04-11T19:06:47.371Z,92.80
2023-04-11T19:09:18.074Z,92.80
2023-04-11T19:11:48.368Z,93.10
2023-04-11T19:14:19.137Z,93.20
2023-04-11T19:16:50.463Z,93.30
2023-04-11T19:19:21.017Z,93.40
2023-04-11T19:21:51.230Z,93.70
2023-04-11T19:24:22.890Z,93.50
2023-04-11T19:26:54.420Z,93.60
2023-04-11T19:29:25.062Z,94.50
2023-04-11T19:31:55.912Z,93.30
2023-04-11T19:34:26.421Z,93.60
2023-04-11T19:36:57.568Z,93.50
2023-04-11T19:39:29.272Z,93.70
2023-04-11T19:42:04.356Z,93.40
2023-04-11T19:44:35.281Z,93.50
2023-04-11T19:47:06.009Z,93.80
2023-04-11T19:49:38.081Z,93.50
2023-04-11T19:52:10.023Z,93.80
2023-04-11T19:54:41.279Z,93.60
2023-04-11T19:57:12.138Z,94.00
2023-04-11T19:59:43.668Z,93.80
2023-04-11T20:02:14.624Z,94.10
2023-04-11T20:04:47.067Z,93.90
2023-04-11T20:07:18.737Z,93.90
2023-04-11T20:09:50.585Z,93.70
2023-04-11T20:12:21.519Z,94.20
2023-04-11T20:14:53.637Z,94.10
2023-04-11T20:17:26.382Z,93.90
2023-04-11T20:20:00.226Z,94.60
2023-04-11T20:22:31.867Z,94.70
2023-04-11T20:25:04.618Z,94.30
2023-04-11T20:27:35.701Z,94.10
2023-04-11T20:30:13.240Z,94.00
2023-04-11T20:32:46.006Z,94.50
2023-04-11T20:35:18.011Z,94.80
2023-04-11T20:37:50.812Z,94.00
2023-04-11T20:40:25.796Z,94.20
2023-04-11T20:42:58.439Z,94.60
2023-04-11T20:45:32.092Z,94.20
2023-04-11T20:48:04.216Z,94.20
2023-04-11T20:50:39.587Z,94.40
2023-04-11T20:53:14.189Z,94.40
2023-04-11T20:55:53.358Z,94.30
2023-04-11T20:58:25.209Z,94.20
2023-04-11T21:00:58.304Z,94.30
2023-04-11T21:03:42.377Z,94.80
2023-04-11T21:06:20.882Z,94.60
2023-04-11T21:08:51.879Z,94.30
2023-04-11T21:11:22.917Z,94.30
2023-04-11T21:13:53.824Z,94.10
2023-04-11T21:16:28.843Z,94.10
2023-04-11T21:19:01.676Z,94.10
2023-04-11T21:21:33.154Z,94.30
2023-04-11T21:24:04.961Z,94.50
2023-04-11T21:26:39.186Z,94.90
2023-04-11T21:29:10.468Z,94.90
2023-04-11T21:31:46.644Z,95.20
2023-04-11T21:34:18.586Z,94.70
2023-04-11T21:36:49.375Z,94.40
2023-04-11T21:39:23.222Z,94.40
2023-04-11T21:41:54.196Z,94.20
2023-04-11T21:44:26.638Z,94.20
2023-04-11T21:46:58.976Z,94.20
2023-04-11T21:49:33.337Z,94.00
2023-04-11T21:52:05.399Z,94.30
2023-04-11T21:54:39.955Z,93.60
2023-04-11T21:57:13.748Z,93.60
2023-04-11T21:59:49.164Z,93.50
2023-04-11T22:02:20.340Z,93.60
2023-04-11T22:05:04.645Z,93.40
2023-04-11T22:07:54.397Z,93.30
2023-04-11T22:10:41.269Z,93.10
2023-04-11T22:13:24.403Z,93.40
2023-04-11T22:16:09.924Z,92.70
2023-04-11T22:18:51.059Z,93.00
2023-04-11T22:21:31.386Z,92.40
2023-04-11T22:24:04.438Z,93.00
2023-04-11T22:26:48.190Z,92.90
2023-04-11T22:29:22.242Z,93.20
2023-04-11T22:31:58.331Z,93.30
2023-04-11T22:34:34.835Z,93.20
2023-04-11T22:37:06.743Z,93.10
2023-04-11T22:39:39.072Z,93.00
2023-04-11T22:42:13.189Z,92.70
2023-04-11T22:44:45.068Z,92.90
2023-04-11T22:47:19.122Z,92.80
2023-04-11T22:49:50.881Z,92.50
2023-04-11T22:52:30.073Z,92.50
2023-04-11T22:55:00.849Z,92.50
2023-04-11T22:57:34.682Z,92.40
2023-04-11T23:00:18.606Z,92.50
2023-04-11T23:02:55.247Z,92.40
2023-04-11T23:05:31.006Z,92.40
2023-04-11T23:08:02.683Z,92.00
2023-04-11T23:10:38.510Z,91.90
2023-04-11T23:13:11.630Z,91.90
2023-04-11T23:15:43.667Z,92.30
2023-04-11T23:18:15.690Z,91.60
2023-04-11T23:20:53.815Z,91.50
2023-04-11T23:23:26.516Z,92.00
2023-04-11T23:26:00.873Z,92.00
2023-04-11T23:28:31.842Z,91.80
2023-04-11T23:31:05.764Z,91.90
2023-04-11T23:33:41.603Z,91.80
2023-04-11T23:36:12.850Z,91.80
2023-04-11T23:38:43.668Z,91.70
2023-04-11T23:41:14.234Z,91.60
2023-04-11T23:43:53.926Z,91.30
2023-04-11T23:46:24.384Z,91.30
2023-04-11T23:48:56.556Z,91.60
2023-04-11T23:51:27.613Z,91.70
2023-04-11T23:53:58.530Z,91.50
2023-04-11T23:56:31.088Z,91.60
2023-04-11T23:59:02.678Z,92.00
